4XCHA LLHZ-LLHZ

Flight info

Callsign 4XCHA
Flight time 0h 9m
Altitude 800
Route CVFR
Aircraft C172/L-VD/A

Departure

Time 2026-04-20 17:15
Airport Herzliya Airport (LLHZ)

Arrival

Time 2026-04-20 17:24
Airport Herzliya Airport (LLHZ)
Time Latitude Longitude Altitude Speed Heading
2026-04-20 17:03 32.17863 34.83846 120 ft 0 kts 289°
2026-04-20 17:11 32.17867 34.83836 120 ft 2 kts 309°
2026-04-20 17:12 32.17873 34.83834 120 ft 1 kts 22°
2026-04-20 17:12 32.17874 34.83834 120 ft 0 kts 22°
2026-04-20 17:13 32.17882 34.83837 120 ft 1 kts 332°
2026-04-20 17:13 32.17889 34.83828 120 ft 0 kts 340°
2026-04-20 17:13 32.17891 34.83828 120 ft 2 kts 344°
2026-04-20 17:14 32.17930 34.83810 120 ft 6 kts 281°
2026-04-20 17:14 32.17984 34.83627 115 ft 50 kts 288°
2026-04-20 17:14 32.18123 34.83145 203 ft 67 kts 280°
2026-04-20 17:14 32.18361 34.82787 405 ft 64 kts 10°
2026-04-20 17:15 32.18815 34.82920 562 ft 65 kts 359°
2026-04-20 17:15 32.19255 34.83049 744 ft 61 kts 34°
2026-04-20 17:15 32.19387 34.83534 843 ft 70 kts 92°
2026-04-20 17:15 32.19213 34.84133 798 ft 80 kts 123°
2026-04-20 17:16 32.18939 34.84636 686 ft 68 kts 128°
2026-04-20 17:16 32.18658 34.85113 616 ft 68 kts 133°
2026-04-20 17:16 32.18253 34.85328 503 ft 60 kts 180°
2026-04-20 17:16 32.17871 34.85269 438 ft 52 kts 192°
2026-04-20 17:17 32.17556 34.85104 386 ft 50 kts 226°
2026-04-20 17:17 32.17592 34.84687 363 ft 66 kts 297°
2026-04-20 17:17 32.17796 34.84201 274 ft 67 kts 289°
2026-04-20 17:17 32.17956 34.83709 119 ft 60 kts 288°
2026-04-20 17:18 32.18062 34.83254 223 ft 59 kts 272°
2026-04-20 17:18 32.18183 34.82772 388 ft 62 kts 310°
2026-04-20 17:18 32.18636 34.82830 487 ft 75 kts
2026-04-20 17:18 32.19157 34.82990 647 ft 77 kts 19°
2026-04-20 17:19 32.19410 34.83496 771 ft 81 kts 93°
2026-04-20 17:19 32.19185 34.84133 769 ft 83 kts 125°
2026-04-20 17:19 32.18887 34.84694 730 ft 78 kts 126°
2026-04-20 17:19 32.18569 34.85211 629 ft 77 kts 141°
2026-04-20 17:20 32.18086 34.85322 501 ft 70 kts 193°
2026-04-20 17:20 32.17684 34.85115 498 ft 57 kts 226°
2026-04-20 17:20 32.17630 34.84659 421 ft 64 kts 290°
2026-04-20 17:20 32.17815 34.84159 282 ft 69 kts 284°
2026-04-20 17:21 32.17981 34.83635 115 ft 60 kts 287°
2026-04-20 17:21 32.18113 34.83171 257 ft 57 kts 280°
2026-04-20 17:21 32.18305 34.82782 411 ft 55 kts 343°
2026-04-20 17:21 32.18722 34.82943 470 ft 69 kts
2026-04-20 17:22 32.19202 34.83134 602 ft 75 kts 30°
2026-04-20 17:22 32.19360 34.83644 755 ft 74 kts 101°
2026-04-20 17:22 32.19161 34.84267 802 ft 86 kts 122°
2026-04-20 17:22 32.18828 34.84885 865 ft 92 kts 123°
2026-04-20 17:23 32.18438 34.85425 677 ft 77 kts 165°
2026-04-20 17:23 32.17973 34.85334 525 ft 61 kts 200°
2026-04-20 17:23 32.17633 34.85086 478 ft 54 kts 235°
2026-04-20 17:23 32.17650 34.84626 386 ft 64 kts 291°
2026-04-20 17:24 32.17832 34.84123 253 ft 66 kts 283°
2026-04-20 17:24 32.17980 34.83637 115 ft 58 kts 285°
2026-04-20 17:24 32.18047 34.83207 282 ft 48 kts 250°
2026-04-20 17:24 32.18186 34.82830 393 ft 54 kts 319°
2026-04-20 17:25 32.18609 34.82842 441 ft 74 kts
2026-04-20 17:25 32.19159 34.82931 525 ft 81 kts 11°
2026-04-20 17:25 32.19539 34.83344 571 ft 82 kts 79°
2026-04-20 17:25 32.19336 34.83972 565 ft 84 kts 126°
2026-04-20 17:26 32.18987 34.84544 579 ft 85 kts 129°
2026-04-20 17:26 32.18651 34.85067 617 ft 73 kts 134°
2026-04-20 17:26 32.18221 34.85325 537 ft 69 kts 186°
2026-04-20 17:26 32.17783 34.85189 533 ft 60 kts 200°
2026-04-20 17:27 32.17612 34.84774 484 ft 68 kts 279°
2026-04-20 17:27 32.17786 34.84239 334 ft 74 kts 283°
2026-04-20 17:27 32.17966 34.83679 117 ft 65 kts 287°
2026-04-20 17:27 32.18051 34.83392 107 ft 19 kts 290°
2026-04-20 17:28 32.18043 34.83331 105 ft 0 kts 189°
2026-04-20 17:28 32.18039 34.83331 106 ft 3 kts 170°
2026-04-20 17:28 32.18028 34.83357 106 ft 7 kts 107°
2026-04-20 17:28 32.18003 34.83434 109 ft 12 kts 108°
2026-04-20 17:29 32.17973 34.83537 112 ft 13 kts 110°
2026-04-20 17:29 32.17952 34.83575 113 ft 0 kts 217°
2026-04-20 17:29 32.17944 34.83569 113 ft 0 kts 194°